createdAt,value
2018-06-12T00:02:06.879Z,76.05
2018-06-12T00:04:38.876Z,76.69
2018-06-12T00:07:10.924Z,76.01
2018-06-12T00:09:42.733Z,75.82
2018-06-12T00:12:14.568Z,74.85
2018-06-12T00:14:46.782Z,75.43
2018-06-12T00:17:18.191Z,75.55
2018-06-12T00:19:49.961Z,76.69
2018-06-12T00:22:22.075Z,76.87
2018-06-12T00:24:53.464Z,77.51
2018-06-12T00:27:25.462Z,77.75
2018-06-12T00:29:57.313Z,77.68
2018-06-12T00:32:29.693Z,76.80
2018-06-12T00:35:02.113Z,75.49
2018-06-12T00:37:34.160Z,75.40
2018-06-12T00:40:05.875Z,74.93
2018-06-12T00:42:37.660Z,75.38
2018-06-12T00:45:09.633Z,74.88
2018-06-12T00:47:41.498Z,75.56
2018-06-12T00:50:13.583Z,74.86
2018-06-12T00:52:48.691Z,74.66
2018-06-12T00:55:22.564Z,74.74
2018-06-12T00:57:54.393Z,74.57
2018-06-12T01:00:26.507Z,75.24
2018-06-12T01:02:58.993Z,73.84
2018-06-12T01:05:30.934Z,74.46
2018-06-12T01:08:03.196Z,73.46
2018-06-12T01:10:35.344Z,73.79
2018-06-12T01:13:08.097Z,74.65
2018-06-12T01:15:40.837Z,75.33
2018-06-12T01:18:12.904Z,75.02
2018-06-12T01:20:44.988Z,74.50
2018-06-12T01:23:16.873Z,75.53
2018-06-12T01:25:48.158Z,75.98
2018-06-12T01:28:19.421Z,76.40
2018-06-12T01:31:03.925Z,76.01
2018-06-12T01:33:36.063Z,75.27
2018-06-12T01:36:08.037Z,76.25
2018-06-12T01:38:40.162Z,76.02
2018-06-12T01:41:12.217Z,76.78
2018-06-12T01:43:44.445Z,77.02
2018-06-12T01:46:16.224Z,76.74
2018-06-12T01:48:47.460Z,77.74
2018-06-12T01:51:19.251Z,77.01
2018-06-12T01:53:52.362Z,76.80
2018-06-12T01:56:32.045Z,76.73
2018-06-12T01:59:04.046Z,77.56
2018-06-12T02:01:36.068Z,76.70
2018-06-12T02:04:08.193Z,77.79
2018-06-12T02:06:40.504Z,78.11
2018-06-12T02:09:12.665Z,78.77
2018-06-12T02:11:45.035Z,79.29
2018-06-12T02:14:17.280Z,79.74
2018-06-12T02:16:50.798Z,80.56
2018-06-12T02:19:23.003Z,80.18
2018-06-12T02:21:55.000Z,79.41
2018-06-12T02:24:27.021Z,79.07
2018-06-12T02:26:59.662Z,78.95
2018-06-12T02:29:31.636Z,79.47
2018-06-12T02:32:04.495Z,79.76
2018-06-12T02:34:36.453Z,79.15
2018-06-12T02:37:08.658Z,80.40
2018-06-12T02:39:40.553Z,80.09
2018-06-12T02:42:12.618Z,80.39
2018-06-12T02:44:44.589Z,80.38
2018-06-12T02:47:16.405Z,80.57
2018-06-12T02:49:48.533Z,80.35
2018-06-12T02:52:47.664Z,79.82
2018-06-12T02:55:21.741Z,79.66
2018-06-12T02:58:03.321Z,79.50
2018-06-12T03:00:37.558Z,81.91
2018-06-12T03:03:09.910Z,83.58
2018-06-12T03:05:41.483Z,82.22
2018-06-12T03:08:13.204Z,78.88
2018-06-12T03:10:45.249Z,78.58
2018-06-12T03:13:16.509Z,79.05
2018-06-12T03:15:48.253Z,80.30
2018-06-12T03:18:20.402Z,80.66
2018-06-12T03:20:52.842Z,80.83
2018-06-12T03:23:24.743Z,80.73
2018-06-12T03:26:01.252Z,80.73
2018-06-12T03:28:33.062Z,80.17
2018-06-12T03:31:04.903Z,81.48
2018-06-12T03:33:36.811Z,80.44
2018-06-12T03:36:08.651Z,79.14
2018-06-12T03:38:40.730Z,79.36
2018-06-12T03:41:12.613Z,80.49
2018-06-12T03:43:44.549Z,80.83
2018-06-12T03:46:16.466Z,80.59
2018-06-12T03:48:48.239Z,79.81
2018-06-12T03:51:20.420Z,80.42
2018-06-12T03:53:52.544Z,80.66
2018-06-12T03:56:24.360Z,79.62
2018-06-12T03:58:56.383Z,79.94
2018-06-12T04:01:28.592Z,79.79
2018-06-12T04:04:01.043Z,80.29
2018-06-12T04:06:37.419Z,76.60
2018-06-12T04:09:11.019Z,78.42
2018-06-12T04:11:42.947Z,78.96
2018-06-12T04:14:14.172Z,81.18
2018-06-12T04:16:45.949Z,81.48
2018-06-12T04:19:19.130Z,81.54
2018-06-12T04:21:51.082Z,82.58
2018-06-12T04:24:22.905Z,82.18
2018-06-12T04:26:54.997Z,82.18
2018-06-12T04:29:27.248Z,83.84
2018-06-12T04:31:59.662Z,82.79
2018-06-12T04:34:31.638Z,83.60
2018-06-12T04:37:04.909Z,81.77
2018-06-12T04:39:38.537Z,73.01
2018-06-12T04:42:10.870Z,71.54
2018-06-12T04:44:43.086Z,76.97
2018-06-12T04:47:15.925Z,78.63
2018-06-12T04:49:48.056Z,77.18
2018-06-12T04:52:20.624Z,76.34
2018-06-12T04:54:53.050Z,74.52
2018-06-12T04:57:24.899Z,74.39
2018-06-12T04:59:56.788Z,74.61
2018-06-12T05:02:28.845Z,77.11
2018-06-12T05:05:01.433Z,76.51
2018-06-12T05:07:33.363Z,79.05
2018-06-12T05:10:05.121Z,76.37
2018-06-12T05:12:37.112Z,73.60
2018-06-12T05:15:09.323Z,73.73
2018-06-12T05:17:40.663Z,71.48
2018-06-12T05:20:16.663Z,70.35
2018-06-12T05:22:48.871Z,73.11
2018-06-12T05:25:20.676Z,73.13
2018-06-12T05:27:52.547Z,75.09
2018-06-12T05:30:25.090Z,73.81
2018-06-12T05:32:57.792Z,72.32
2018-06-12T05:35:30.019Z,73.47
2018-06-12T05:38:02.465Z,74.47
2018-06-12T05:40:34.447Z,74.90
2018-06-12T05:43:06.687Z,74.89
2018-06-12T05:45:38.272Z,75.52
2018-06-12T05:48:10.246Z,75.55
2018-06-12T05:50:43.524Z,77.09
2018-06-12T05:53:15.564Z,76.65
2018-06-12T05:55:47.562Z,74.88
2018-06-12T05:58:19.969Z,75.78
2018-06-12T06:00:52.970Z,75.12
2018-06-12T06:03:24.979Z,73.53
2018-06-12T06:05:57.372Z,73.40
2018-06-12T06:08:29.746Z,72.26
2018-06-12T06:11:02.419Z,73.85
2018-06-12T06:13:34.861Z,73.80
2018-06-12T06:16:06.409Z,72.50
2018-06-12T06:18:38.565Z,71.27
2018-06-12T06:21:10.544Z,71.48
2018-06-12T06:23:42.582Z,68.71
2018-06-12T06:26:15.432Z,69.44
2018-06-12T06:28:47.362Z,67.37
2018-06-12T06:31:19.324Z,64.77
2018-06-12T06:33:51.243Z,62.81
2018-06-12T06:36:23.266Z,66.28
2018-06-12T06:38:55.286Z,62.96
2018-06-12T06:41:27.417Z,64.81
2018-06-12T06:43:59.686Z,62.36
2018-06-12T06:46:31.657Z,62.45
2018-06-12T06:49:03.992Z,58.90
2018-06-12T06:51:35.870Z,60.95
2018-06-12T06:54:07.798Z,60.79
2018-06-12T06:56:40.034Z,58.85
2018-06-12T06:59:12.065Z,60.12
2018-06-12T07:01:44.129Z,60.44
2018-06-12T07:04:16.279Z,59.12
2018-06-12T07:06:48.289Z,56.17
2018-06-12T07:09:20.214Z,56.49
2018-06-12T07:11:52.153Z,54.10
2018-06-12T07:14:23.508Z,55.41
2018-06-12T07:16:56.049Z,55.11
2018-06-12T07:19:27.540Z,57.26
2018-06-12T07:22:00.495Z,56.60
2018-06-12T07:24:32.542Z,55.12
2018-06-12T07:27:05.165Z,57.73
2018-06-12T07:29:37.745Z,56.11
2018-06-12T07:32:10.467Z,53.29
2018-06-12T07:34:43.581Z,51.27
2018-06-12T07:37:15.534Z,53.98
2018-06-12T07:39:48.235Z,53.57
2018-06-12T07:42:20.166Z,54.93
2018-06-12T07:44:52.753Z,55.06
2018-06-12T07:47:25.278Z,53.68
2018-06-12T07:49:57.973Z,53.44
2018-06-12T07:52:31.137Z,55.23
2018-06-12T07:55:04.157Z,57.08
2018-06-12T07:57:36.679Z,55.44
2018-06-12T08:00:08.816Z,53.29
2018-06-12T08:02:41.892Z,54.10
2018-06-12T08:05:49.240Z,53.97
2018-06-12T08:08:55.792Z,51.82
2018-06-12T08:11:28.372Z,53.11
2018-06-12T08:14:00.852Z,51.24
2018-06-12T08:16:34.682Z,51.05
2018-06-12T08:19:07.778Z,53.84
2018-06-12T08:21:40.435Z,51.29
2018-06-12T08:24:13.101Z,50.62
2018-06-12T08:26:45.890Z,53.13
2018-06-12T08:29:17.992Z,54.31
2018-06-12T08:31:49.845Z,54.67
2018-06-12T08:34:22.139Z,54.32
2018-06-12T08:36:54.730Z,52.80
2018-06-12T08:39:27.360Z,54.57
2018-06-12T08:42:01.272Z,54.50
2018-06-12T08:44:33.016Z,53.83
2018-06-12T08:47:05.612Z,53.72
2018-06-12T08:49:38.691Z,52.41
2018-06-12T08:52:10.625Z,53.48
2018-06-12T08:54:42.983Z,56.05
2018-06-12T08:57:15.521Z,57.35
2018-06-12T08:59:47.595Z,60.14
2018-06-12T09:02:19.438Z,60.60
2018-06-12T09:04:51.996Z,56.73
2018-06-12T09:07:24.583Z,59.33
2018-06-12T09:09:57.468Z,60.37
2018-06-12T09:12:30.009Z,59.60
2018-06-12T09:15:02.934Z,60.48
2018-06-12T09:17:34.797Z,60.72
2018-06-12T09:20:07.414Z,62.17
2018-06-12T09:22:40.100Z,59.76
2018-06-12T09:25:18.564Z,60.95
2018-06-12T09:27:51.350Z,58.14
2018-06-12T09:30:23.366Z,58.43
2018-06-12T09:32:55.792Z,56.96
2018-06-12T09:35:28.589Z,57.71
2018-06-12T09:38:01.098Z,57.48
2018-06-12T09:40:34.333Z,55.00
2018-06-12T09:43:09.300Z,52.32
2018-06-12T09:45:42.065Z,53.05
2018-06-12T09:48:14.767Z,51.85
2018-06-12T09:50:47.784Z,49.04
2018-06-12T09:53:20.549Z,53.08
2018-06-12T09:55:53.202Z,50.27
2018-06-12T09:58:26.542Z,50.31
2018-06-12T10:01:04.809Z,50.66
2018-06-12T10:03:37.382Z,51.86
2018-06-12T10:06:10.067Z,51.34
2018-06-12T10:08:43.513Z,52.44
2018-06-12T10:11:16.142Z,54.37
2018-06-12T10:13:48.668Z,51.92
2018-06-12T10:16:21.642Z,52.48
2018-06-12T10:18:54.339Z,51.10
2018-06-12T10:21:28.912Z,52.60
2018-06-12T10:24:01.082Z,51.75
2018-06-12T10:26:33.600Z,50.04
2018-06-12T10:29:06.514Z,49.23
2018-06-12T10:31:40.440Z,50.80
2018-06-12T10:34:13.192Z,52.84
2018-06-12T10:36:45.709Z,52.16
2018-06-12T10:39:17.694Z,52.02
2018-06-12T10:41:51.208Z,52.45
2018-06-12T10:44:23.965Z,52.65
2018-06-12T10:46:57.318Z,55.97
2018-06-12T10:49:29.985Z,53.88
2018-06-12T10:52:03.364Z,51.85
2018-06-12T10:54:35.846Z,51.08
2018-06-12T10:57:09.461Z,48.50
2018-06-12T10:59:43.268Z,48.97
2018-06-12T11:02:15.924Z,51.50
2018-06-12T11:04:49.282Z,49.93
2018-06-12T11:07:22.979Z,49.04
2018-06-12T11:09:56.001Z,50.34
2018-06-12T11:12:28.678Z,50.77
2018-06-12T11:15:01.777Z,53.38
2018-06-12T11:17:34.355Z,55.48
2018-06-12T11:20:07.063Z,55.35
2018-06-12T11:22:39.610Z,57.25
2018-06-12T11:25:16.410Z,57.53
2018-06-12T11:27:50.968Z,57.86
2018-06-12T11:30:23.717Z,56.64
2018-06-12T11:32:57.134Z,56.42
2018-06-12T11:35:29.666Z,57.93
2018-06-12T11:38:01.959Z,57.45
2018-06-12T11:40:33.927Z,55.87
2018-06-12T11:43:06.351Z,53.96
2018-06-12T11:45:38.358Z,54.47
2018-06-12T11:48:10.120Z,53.39
2018-06-12T11:50:42.535Z,52.60
2018-06-12T11:53:15.472Z,53.86
2018-06-12T11:55:47.988Z,58.79
2018-06-12T11:58:20.553Z,59.90
2018-06-12T12:00:53.420Z,56.97
2018-06-12T12:03:25.816Z,57.24
2018-06-12T12:05:58.644Z,58.06
2018-06-12T12:08:30.866Z,57.55
2018-06-12T12:11:03.887Z,57.88
2018-06-12T12:13:36.478Z,59.51
2018-06-12T12:16:09.073Z,59.43
2018-06-12T12:18:40.946Z,57.67
2018-06-12T12:21:14.021Z,59.35
2018-06-12T12:23:46.039Z,56.45
2018-06-12T12:26:19.708Z,58.68
2018-06-12T12:28:54.124Z,56.72
2018-06-12T12:31:27.288Z,55.47
2018-06-12T12:34:01.661Z,56.46
2018-06-12T12:36:34.865Z,57.58
2018-06-12T12:39:10.712Z,55.80
2018-06-12T12:41:44.150Z,57.02
2018-06-12T12:44:16.412Z,55.87
2018-06-12T12:46:50.259Z,55.81
2018-06-12T12:49:23.950Z,56.28
2018-06-12T12:51:57.278Z,56.02
2018-06-12T12:54:29.788Z,55.53
2018-06-12T12:57:03.126Z,56.11
2018-06-12T12:59:35.613Z,54.97
2018-06-12T13:02:08.001Z,53.92
2018-06-12T13:04:40.191Z,52.96
2018-06-12T13:07:12.411Z,56.10
2018-06-12T13:09:43.961Z,56.37
2018-06-12T13:12:18.438Z,56.70
2018-06-12T13:14:51.583Z,55.87
2018-06-12T13:17:22.971Z,55.18
2018-06-12T13:19:54.222Z,55.30
2018-06-12T13:22:25.488Z,55.25
2018-06-12T13:24:57.297Z,57.89
2018-06-12T13:27:28.575Z,54.47
2018-06-12T13:30:00.652Z,57.08
2018-06-12T13:32:32.700Z,58.99
2018-06-12T13:35:04.555Z,58.83
2018-06-12T13:37:35.882Z,58.76
2018-06-12T13:40:07.758Z,57.64
2018-06-12T13:42:39.085Z,58.01
2018-06-12T13:45:10.873Z,58.11
2018-06-12T13:47:45.483Z,57.80
2018-06-12T13:50:20.213Z,58.75
2018-06-12T13:52:52.464Z,59.04
2018-06-12T13:55:27.397Z,59.57
2018-06-12T13:57:59.346Z,59.17
2018-06-12T14:00:31.101Z,59.89
2018-06-12T14:03:03.263Z,60.58
2018-06-12T14:05:35.081Z,57.89
2018-06-12T14:08:06.880Z,58.85
2018-06-12T14:10:39.818Z,56.97
2018-06-12T14:13:11.728Z,56.07
2018-06-12T14:15:43.372Z,57.30
2018-06-12T14:18:16.900Z,56.96
2018-06-12T14:20:48.985Z,55.46
2018-06-12T14:23:20.796Z,54.29
2018-06-12T14:25:52.574Z,56.18
2018-06-12T14:28:24.608Z,57.22
2018-06-12T14:30:56.389Z,55.35
2018-06-12T14:33:28.230Z,55.71
2018-06-12T14:36:00.509Z,55.92
2018-06-12T14:38:32.492Z,56.88
2018-06-12T14:41:04.589Z,56.80
2018-06-12T14:43:36.484Z,57.98
2018-06-12T14:46:08.286Z,58.84
2018-06-12T14:48:40.144Z,58.28
2018-06-12T14:51:11.956Z,60.07
2018-06-12T14:53:43.842Z,61.58
2018-06-12T14:56:16.396Z,60.95
2018-06-12T14:58:48.284Z,62.07
2018-06-12T15:01:20.071Z,61.03
2018-06-12T15:03:51.879Z,59.63
2018-06-12T15:06:25.097Z,60.76
2018-06-12T15:08:57.112Z,60.87
2018-06-12T15:11:29.018Z,61.20
2018-06-12T15:14:00.993Z,62.92
2018-06-12T15:16:32.958Z,61.67
2018-06-12T15:19:05.038Z,61.31
2018-06-12T15:21:36.838Z,61.03
2018-06-12T15:24:08.558Z,61.87
2018-06-12T15:26:40.272Z,63.75
2018-06-12T15:29:12.542Z,62.18
2018-06-12T15:31:43.785Z,64.59
2018-06-12T15:34:15.672Z,64.86
2018-06-12T15:36:47.471Z,64.83
2018-06-12T15:39:19.219Z,65.28
2018-06-12T15:41:50.877Z,64.40
2018-06-12T15:44:22.627Z,64.95
2018-06-12T15:46:55.814Z,66.01
2018-06-12T15:49:27.330Z,64.66
2018-06-12T15:51:59.546Z,64.96
2018-06-12T15:54:30.831Z,65.65
2018-06-12T15:57:02.988Z,66.15
2018-06-12T15:59:34.923Z,66.81
2018-06-12T16:02:06.792Z,67.11
2018-06-12T16:04:38.613Z,67.33
2018-06-12T16:07:10.346Z,67.37
2018-06-12T16:09:41.668Z,68.47
2018-06-12T16:12:13.523Z,69.75
2018-06-12T16:14:45.551Z,68.18
2018-06-12T16:17:17.506Z,68.28
2018-06-12T16:19:49.699Z,68.42
2018-06-12T16:22:21.503Z,68.18
2018-06-12T16:24:53.242Z,68.53
2018-06-12T16:27:25.080Z,67.69
2018-06-12T16:29:56.908Z,68.55
2018-06-12T16:32:29.523Z,68.87
2018-06-12T16:35:01.916Z,69.47
2018-06-12T16:37:33.890Z,69.09
2018-06-12T16:40:05.949Z,69.03
2018-06-12T16:42:41.072Z,68.90
2018-06-12T16:45:15.386Z,69.36
2018-06-12T16:47:48.027Z,69.81
2018-06-12T16:50:20.416Z,69.54
2018-06-12T16:52:52.152Z,70.17
2018-06-12T16:55:23.344Z,70.77
2018-06-12T16:57:55.003Z,70.96
2018-06-12T17:00:26.941Z,70.94
2018-06-12T17:02:58.826Z,71.77
2018-06-12T17:05:30.807Z,72.63
2018-06-12T17:10:33.141Z,73.31
2018-06-12T17:13:04.448Z,73.71
2018-06-12T17:15:36.210Z,73.02
2018-06-12T17:18:08.176Z,72.70
2018-06-12T17:20:40.249Z,73.19
2018-06-12T17:23:12.106Z,73.37
2018-06-12T17:25:44.047Z,73.66
2018-06-12T17:28:17.121Z,73.76
2018-06-12T17:30:49.495Z,74.35
2018-06-12T17:33:21.361Z,74.49
2018-06-12T17:35:53.262Z,75.17
2018-06-12T17:38:24.550Z,74.17
2018-06-12T17:40:55.796Z,74.53
2018-06-12T17:43:27.333Z,75.31
2018-06-12T17:45:59.544Z,75.45
2018-06-12T17:48:31.477Z,74.78
2018-06-12T17:51:03.984Z,74.87
2018-06-12T17:53:36.185Z,75.39
2018-06-12T17:56:09.161Z,75.67
2018-06-12T17:58:41.196Z,75.08
2018-06-12T18:01:13.931Z,76.41
2018-06-12T18:03:46.153Z,76.86
2018-06-12T18:06:19.021Z,76.73
2018-06-12T18:08:52.651Z,77.75
2018-06-12T18:11:25.358Z,78.02
2018-06-12T18:13:57.020Z,77.72
2018-06-12T18:16:28.844Z,78.05
2018-06-12T18:19:01.253Z,78.20
2018-06-12T18:21:33.133Z,79.11
2018-06-12T18:24:04.504Z,79.14
2018-06-12T18:26:35.896Z,78.88
2018-06-12T18:29:07.684Z,79.59
2018-06-12T18:31:39.009Z,78.79
2018-06-12T18:34:10.841Z,78.99
2018-06-12T18:36:42.370Z,79.86
2018-06-12T18:39:14.124Z,79.53
2018-06-12T18:41:46.042Z,79.71
2018-06-12T18:44:18.341Z,79.52
2018-06-12T18:46:49.849Z,79.34
2018-06-12T18:49:21.699Z,79.58
2018-06-12T18:51:53.672Z,79.84
2018-06-12T18:54:25.586Z,80.00
2018-06-12T18:56:57.723Z,79.61
2018-06-12T18:59:29.478Z,79.86
2018-06-12T19:02:01.206Z,78.90
2018-06-12T19:04:32.860Z,79.28
2018-06-12T19:07:04.948Z,79.43
2018-06-12T19:09:36.637Z,79.99
2018-06-12T19:12:09.436Z,80.35
2018-06-12T19:14:41.343Z,80.31
2018-06-12T19:17:13.337Z,81.20
2018-06-12T19:19:45.062Z,81.13
2018-06-12T19:22:17.151Z,79.33
2018-06-12T19:24:48.927Z,78.32
2018-06-12T19:27:20.785Z,77.56
2018-06-12T19:29:52.922Z,78.14
2018-06-12T19:32:27.173Z,78.54
2018-06-12T19:34:59.518Z,78.87
2018-06-12T19:37:31.702Z,78.92
2018-06-12T19:40:04.267Z,78.34
2018-06-12T19:42:36.064Z,77.16
2018-06-12T19:45:08.259Z,77.38
2018-06-12T19:47:42.502Z,77.89
2018-06-12T19:50:15.252Z,76.76
2018-06-12T19:52:51.021Z,77.83
2018-06-12T19:55:28.442Z,78.46
2018-06-12T19:58:00.796Z,79.03
2018-06-12T20:00:32.777Z,80.26
2018-06-12T20:03:05.123Z,79.49
2018-06-12T20:05:37.084Z,79.81
2018-06-12T20:08:09.150Z,78.64
2018-06-12T20:10:41.137Z,79.24
2018-06-12T20:13:13.527Z,80.67
2018-06-12T20:15:45.725Z,80.39
2018-06-12T20:18:17.144Z,81.08
2018-06-12T20:20:49.093Z,80.92
2018-06-12T20:23:22.635Z,81.54
2018-06-12T20:25:54.668Z,80.30
2018-06-12T20:28:26.770Z,80.82
2018-06-12T20:30:58.227Z,81.95
2018-06-12T20:33:30.723Z,81.43
2018-06-12T20:36:03.400Z,81.61
2018-06-12T20:38:35.581Z,82.57
2018-06-12T20:41:07.736Z,83.69
2018-06-12T20:43:39.636Z,83.03
2018-06-12T20:46:11.613Z,82.56
2018-06-12T20:48:43.428Z,83.39
2018-06-12T20:51:15.511Z,83.50
2018-06-12T20:53:47.454Z,83.83
2018-06-12T20:56:19.563Z,84.05
2018-06-12T20:58:51.564Z,83.82
2018-06-12T21:01:23.497Z,83.63
2018-06-12T21:03:56.128Z,82.96
2018-06-12T21:06:28.144Z,81.21
2018-06-12T21:09:00.573Z,82.37
2018-06-12T21:11:32.487Z,80.26
2018-06-12T21:14:04.826Z,81.84
2018-06-12T21:16:37.006Z,82.08
2018-06-12T21:19:10.098Z,82.52
2018-06-12T21:21:42.110Z,81.70
2018-06-12T21:24:13.998Z,82.85
2018-06-12T21:26:46.167Z,83.38
2018-06-12T21:29:18.166Z,83.75
2018-06-12T21:31:50.233Z,83.74
2018-06-12T21:34:22.738Z,82.12
2018-06-12T21:36:55.216Z,81.54
2018-06-12T21:39:27.234Z,79.64
2018-06-12T21:41:59.646Z,79.94
2018-06-12T21:44:31.653Z,79.24
2018-06-12T21:47:04.216Z,80.09
2018-06-12T21:49:36.176Z,80.37
2018-06-12T21:52:08.346Z,81.04
2018-06-12T21:54:41.636Z,80.45
2018-06-12T21:57:13.738Z,81.03
2018-06-12T21:59:45.610Z,79.60
2018-06-12T22:02:17.585Z,79.70
2018-06-12T22:04:49.713Z,79.97
2018-06-12T22:07:21.524Z,79.89
2018-06-12T22:09:53.579Z,80.10
2018-06-12T22:12:25.381Z,80.30
2018-06-12T22:15:04.960Z,78.73
2018-06-12T22:17:52.250Z,78.38
2018-06-12T22:20:27.289Z,78.12
2018-06-12T22:22:59.566Z,79.32
2018-06-12T22:25:30.993Z,79.93
2018-06-12T22:28:03.283Z,79.85
2018-06-12T22:30:35.280Z,79.75
2018-06-12T22:33:08.080Z,79.54
2018-06-12T22:35:40.688Z,79.95
2018-06-12T22:38:13.168Z,81.08
2018-06-12T22:40:46.399Z,81.07
2018-06-12T22:43:18.437Z,80.21
2018-06-12T22:45:50.953Z,80.28
2018-06-12T22:48:22.852Z,80.98
2018-06-12T22:50:54.824Z,88.68
2018-06-12T22:53:26.065Z,89.67
2018-06-12T22:55:57.836Z,89.83
2018-06-12T22:58:29.237Z,89.60
2018-06-12T23:01:02.169Z,90.29
2018-06-12T23:03:34.241Z,91.68
2018-06-12T23:06:06.988Z,92.67
2018-06-12T23:08:39.000Z,92.63
2018-06-12T23:11:11.172Z,92.59
2018-06-12T23:13:43.199Z,92.53
2018-06-12T23:16:14.698Z,93.73
2018-06-12T23:18:46.147Z,93.41
2018-06-12T23:21:49.065Z,93.73
2018-06-12T23:24:21.087Z,93.64
2018-06-12T23:26:52.579Z,92.93
2018-06-12T23:29:24.456Z,93.41
2018-06-12T23:31:56.396Z,92.71
2018-06-12T23:34:28.690Z,93.02
2018-06-12T23:37:01.118Z,93.74
2018-06-12T23:39:33.116Z,93.92
2018-06-12T23:42:05.395Z,92.95
2018-06-12T23:44:36.872Z,93.58
2018-06-12T23:47:08.119Z,92.87
2018-06-12T23:49:39.845Z,93.04
2018-06-12T23:52:11.905Z,93.74
2018-06-12T23:54:43.832Z,93.61
2018-06-12T23:57:15.393Z,91.67
2018-06-12T23:59:47.456Z,91.88
